Voskresensk, Russia
Current Conditions -  °F | °C
As of 6:30 PM on Wednesday 22 Oct 2014 (Local Time) from UUWW Reporting Station
Broken Clouds Broken Clouds  
Wind Chill: 10°   Ceiling: 2100
Heat Index: 21°   Visibility: 6mi
Dew Point: 14°   Wind: 11mph
Humidity: 74%   Direction: 340°NNW
Pressure: 30"   Gusts: NA
Location:  55.27°N, 36.74°E
Report Text: UUWW 221530Z 34005MPS 9999 BKN021 M06/M10 Q1016 01410235 NOSIG
Loading
Personal Weather Stations






























Interactive Weather Map
Tropical Storm Tracking
New forecast layout! Learn more

10-Day Weather Forecast

Advertisements
Track Severe Weather on mobile